Terminal Aerodrome Forecast
Issued by NWS North Platte, NE

Home | Current Version | Previous Version | Graphics & Text | Print | Product List | Glossary On
Versions: 1 2 3 4 5 6 7 8 9 10 11 12 13
247
FTUS43 KLBF 152338
TAFVTN
TAF
KVTN 152338Z 1600/1624 VRB03KT P6SM BKN200
     FM161500 33007KT P6SM OVC070
     FM161900 33011KT P6SM VCSH BKN070=

USA.gov is the U.S. government's official web portal to all federal, state and local government web resources and services.